createdAt,value
2023-10-20T00:00:35.416Z,49.8
2023-10-20T00:05:37.010Z,49.9
2023-10-20T00:10:37.956Z,49.8
2023-10-20T00:15:38.903Z,49.8
2023-10-20T00:20:42.491Z,49.8
2023-10-20T00:25:42.674Z,49.7
2023-10-20T00:30:43.631Z,49.7
2023-10-20T00:35:48.776Z,49.6
2023-10-20T00:40:51.618Z,49.7
2023-10-20T00:45:52.522Z,49.7
2023-10-20T00:50:53.269Z,49.6
2023-10-20T00:55:57.027Z,49.7
2023-10-20T01:00:57.663Z,49.6
2023-10-20T01:05:58.503Z,49.6
2023-10-20T01:10:59.483Z,49.7
2023-10-20T01:16:00.328Z,49.7
2023-10-20T01:21:01.158Z,49.7
2023-10-20T01:26:02.049Z,49.7
2023-10-20T01:31:02.964Z,49.7
2023-10-20T01:36:06.578Z,49.6
2023-10-20T01:41:09.854Z,49.6
2023-10-20T01:46:10.308Z,49.7
2023-10-20T01:51:13.792Z,49.7
2023-10-20T01:56:14.356Z,49.7
2023-10-20T02:01:15.382Z,49.7
2023-10-20T02:06:19.084Z,49.7
2023-10-20T02:11:19.330Z,49.7
2023-10-20T02:16:23.059Z,49.7
2023-10-20T02:21:23.281Z,49.7
2023-10-20T02:26:27.087Z,49.7
2023-10-20T02:31:30.375Z,49.7
2023-10-20T02:36:30.677Z,49.7
2023-10-20T02:41:31.593Z,49.8
2023-10-20T02:46:32.416Z,49.8
2023-10-20T02:51:33.484Z,49.8
2023-10-20T02:56:34.554Z,49.8
2023-10-20T03:01:38.261Z,49.8
2023-10-20T03:06:37.655Z,49.9
2023-10-20T03:11:41.653Z,49.8
2023-10-20T03:16:42.241Z,49.8
2023-10-20T03:21:43.354Z,49.9
2023-10-20T03:26:44.425Z,49.9
2023-10-20T03:31:45.314Z,49.9
2023-10-20T03:36:49.232Z,49.8
2023-10-20T03:41:49.937Z,49.8
2023-10-20T03:46:53.769Z,49.8
2023-10-20T03:51:54.721Z,49.8
2023-10-20T03:56:58.332Z,49.7
2023-10-20T04:01:58.819Z,49.8
2023-10-20T04:06:59.532Z,49.9
2023-10-20T04:12:05.362Z,49.8
2023-10-20T04:17:08.589Z,49.9
2023-10-20T04:22:11.734Z,49.9
2023-10-20T04:27:12.089Z,49.8
2023-10-20T04:32:13.159Z,49.8
2023-10-20T04:37:13.862Z,49.9
2023-10-20T04:42:14.885Z,49.9
2023-10-20T04:47:14.668Z,49.9
2023-10-20T04:52:15.879Z,49.9
2023-10-20T04:57:19.474Z,49.9
2023-10-20T05:02:22.768Z,49.8
2023-10-20T05:07:25.987Z,50
2023-10-20T05:12:29.014Z,49.9
2023-10-20T05:17:32.018Z,49.7
2023-10-20T05:22:32.589Z,49.7
2023-10-20T05:27:36.236Z,49.8
2023-10-20T05:32:37.012Z,50.1
2023-10-20T05:37:38.068Z,50.4
2023-10-20T05:42:39.003Z,50.2
2023-10-20T05:47:42.746Z,50.5
2023-10-20T05:52:43.072Z,50.6
2023-10-20T05:57:44.050Z,50.8
2023-10-20T06:02:47.795Z,50.8
2023-10-20T06:07:51.084Z,50.8
2023-10-20T06:12:51.608Z,50.7
2023-10-20T06:17:55.544Z,50.9
2023-10-20T06:22:58.705Z,50.9
2023-10-20T06:27:59.222Z,51.1
2023-10-20T06:33:00.086Z,51.1
2023-10-20T06:38:00.897Z,51.3
2023-10-20T06:43:01.896Z,51.3
2023-10-20T06:48:05.499Z,51.4
2023-10-20T06:53:05.803Z,51.5
2023-10-20T06:58:06.717Z,51.5
2023-10-20T07:03:10.487Z,51.5
2023-10-20T07:08:10.870Z,51.5
2023-10-20T07:13:11.789Z,51.4
2023-10-20T07:18:14.180Z,51.4
2023-10-20T07:23:13.824Z,51.3
2023-10-20T07:28:17.374Z,51.4
2023-10-20T07:33:20.590Z,51.4
2023-10-20T07:38:20.862Z,51.5
2023-10-20T07:43:21.582Z,51.5
2023-10-20T07:48:22.468Z,51.6
2023-10-20T07:53:26.008Z,51.6
2023-10-20T07:58:29.113Z,51.7
2023-10-20T08:03:29.767Z,51.6
2023-10-20T08:08:30.344Z,51.7
2023-10-20T08:13:31.873Z,51.8
2023-10-20T08:18:32.845Z,52
2023-10-20T08:23:33.905Z,51.9
2023-10-20T08:28:37.412Z,52.1
2023-10-20T08:33:40.820Z,52.1
2023-10-20T08:38:44.178Z,52.1
2023-10-20T08:43:44.574Z,52.1
2023-10-20T08:48:45.563Z,52.2
2023-10-20T08:53:46.540Z,52.3
2023-10-20T08:58:47.350Z,52.4
2023-10-20T09:03:48.378Z,52.4
2023-10-20T09:08:50.177Z,52.5
2023-10-20T09:13:53.857Z,52.5
2023-10-20T09:18:54.924Z,52.6
2023-10-20T09:23:55.473Z,52.5
2023-10-20T09:29:00.081Z,52.6
2023-10-20T09:34:02.196Z,52.6
2023-10-20T09:39:02.847Z,52.6
2023-10-20T09:44:03.725Z,52.5
2023-10-20T09:49:07.115Z,52.5
2023-10-20T09:54:07.672Z,52.5
2023-10-20T09:59:08.744Z,52.5
2023-10-20T10:04:12.503Z,52.6
2023-10-20T10:09:13.130Z,52.6
2023-10-20T10:14:14.109Z,52.6
2023-10-20T10:19:17.804Z,52.6
2023-10-20T10:24:19.415Z,52.8
2023-10-20T10:29:22.622Z,52.7
2023-10-20T10:34:23.076Z,52.7
2023-10-20T10:39:24.134Z,52.8
2023-10-20T10:44:25.073Z,52.9
2023-10-20T10:49:26.216Z,53
2023-10-20T10:54:25.748Z,53
2023-10-20T10:59:26.797Z,53.1
2023-10-20T11:04:30.359Z,53
2023-10-20T11:09:30.682Z,53
2023-10-20T11:14:31.517Z,53
2023-10-20T11:19:32.372Z,53.1
2023-10-20T11:24:33.530Z,53
2023-10-20T11:29:47.039Z,53
2023-10-20T11:34:40.359Z,52.9
2023-10-20T11:39:40.736Z,53
2023-10-20T11:44:44.532Z,53.1
2023-10-20T11:49:44.687Z,53.2
2023-10-20T11:54:48.160Z,53.2
2023-10-20T11:59:51.505Z,53.2
2023-10-20T12:04:51.763Z,53.3
2023-10-20T12:09:55.482Z,53.3
2023-10-20T12:14:59.655Z,53.6
2023-10-20T12:20:04.265Z,53.9
2023-10-20T12:24:43.765Z,54.5
2023-10-20T12:29:44.657Z,54.8
2023-10-20T12:34:47.849Z,55.3
2023-10-20T12:39:48.387Z,55.9
2023-10-20T12:44:51.895Z,55.8
2023-10-20T12:49:52.295Z,55.8
2023-10-20T12:54:56.198Z,55.8
2023-10-20T12:59:59.518Z,56
2023-10-20T13:05:02.841Z,55.8
2023-10-20T13:10:03.441Z,55.7
2023-10-20T13:15:04.660Z,56.1
2023-10-20T13:20:05.582Z,56.1
2023-10-20T13:25:09.217Z,56.2
2023-10-20T13:30:12.630Z,56.1
2023-10-20T13:35:13.259Z,56
2023-10-20T13:40:13.708Z,55.9
2023-10-20T13:45:17.499Z,55.7
2023-10-20T13:50:20.590Z,55.8
2023-10-20T13:55:21.254Z,55.7
2023-10-20T14:00:24.689Z,55.2
2023-10-20T14:05:25.007Z,55.3
2023-10-20T14:10:25.994Z,55.5
2023-10-20T14:15:26.734Z,55
2023-10-20T14:20:30.196Z,55
2023-10-20T14:25:33.315Z,54.7
2023-10-20T14:30:33.931Z,54.7
2023-10-20T14:35:34.895Z,55
2023-10-20T14:40:38.539Z,55
2023-10-20T14:45:41.731Z,54.9
2023-10-20T14:50:44.848Z,54.6
2023-10-20T14:55:45.235Z,54.7
2023-10-20T15:00:48.841Z,54.9
2023-10-20T15:05:51.983Z,54.8
2023-10-20T15:10:52.397Z,54.9
2023-10-20T15:15:53.489Z,54.9
2023-10-20T15:20:57.236Z,55
2023-10-20T15:26:00.483Z,54.6
2023-10-20T15:31:00.933Z,54.8
2023-10-20T15:36:01.948Z,54.9
2023-10-20T15:41:05.630Z,54.9
2023-10-20T15:46:06.176Z,55
2023-10-20T15:51:07.089Z,55
2023-10-20T15:56:08.017Z,55.2
2023-10-20T16:01:08.744Z,55.2
2023-10-20T16:06:09.614Z,55.2
2023-10-20T16:11:13.385Z,55.4
2023-10-20T16:16:24.246Z,55.5
2023-10-20T16:21:23.809Z,55.5
2023-10-20T16:26:24.653Z,55.5
2023-10-20T16:31:25.606Z,55.5
2023-10-20T16:36:26.444Z,55.7
2023-10-20T16:41:27.318Z,55.7
2023-10-20T16:46:28.403Z,55.7
2023-10-20T16:51:31.810Z,55.7
2023-10-20T16:56:32.118Z,55.8
2023-10-20T17:01:32.909Z,55.6
2023-10-20T17:06:06.054Z,55.8
2023-10-20T17:11:06.924Z,55.8
2023-10-20T17:16:11.035Z,55.9
2023-10-20T17:21:14.137Z,55.8
2023-10-20T17:26:14.668Z,55.8
2023-10-20T17:31:18.570Z,56
2023-10-20T17:36:19.321Z,55.9
2023-10-20T17:41:20.429Z,56.1
2023-10-20T17:46:22.197Z,56.1
2023-10-20T17:51:23.543Z,56
2023-10-20T17:56:24.655Z,56
2023-10-20T18:01:25.672Z,55.9
2023-10-20T18:06:27.411Z,56.1
2023-10-20T18:11:28.125Z,55.9
2023-10-20T18:16:29.323Z,56
2023-10-20T18:21:33.280Z,56.1
2023-10-20T18:26:34.467Z,56.2
2023-10-20T18:31:38.052Z,56.4
2023-10-20T18:36:41.190Z,56.7
2023-10-20T18:41:44.155Z,56.4
2023-10-20T18:46:47.460Z,56.7
2023-10-20T18:51:47.857Z,56.8
2023-10-20T18:56:51.437Z,56.7
2023-10-20T19:01:51.854Z,56.7
2023-10-20T19:06:53.038Z,56.8
2023-10-20T19:11:52.732Z,56.8
2023-10-20T19:16:53.847Z,56.7
2023-10-20T19:21:57.475Z,56.8
2023-10-20T19:26:57.700Z,56.9
2023-10-20T19:31:57.461Z,56.9
2023-10-20T19:36:58.603Z,56.8
2023-10-20T19:42:02.118Z,56.8
2023-10-20T19:47:06.917Z,56.9
2023-10-20T19:52:06.981Z,56.3
2023-10-20T19:57:10.368Z,56.9
2023-10-20T20:01:47.204Z,56.9
2023-10-20T20:06:48.081Z,56.6
2023-10-20T20:11:48.990Z,56.9
2023-10-20T20:16:52.657Z,57
2023-10-20T20:21:53.107Z,56.6
2023-10-20T20:26:53.997Z,57
2023-10-20T20:31:57.674Z,56.9
2023-10-20T20:36:59.040Z,57.2
2023-10-20T20:42:02.297Z,56.8
2023-10-20T20:47:03.782Z,57
2023-10-20T20:52:06.835Z,56.8
2023-10-20T20:57:07.274Z,56.9
2023-10-20T21:02:09.119Z,56.8
2023-10-20T21:07:12.540Z,57
2023-10-20T21:12:13.008Z,56.9
2023-10-20T21:17:16.644Z,56.8
2023-10-20T21:22:17.152Z,56.9
2023-10-20T21:27:20.950Z,56.7
2023-10-20T21:32:21.545Z,56.8
2023-10-20T21:37:22.471Z,56.7
2023-10-20T21:42:23.754Z,56.4
2023-10-20T21:47:24.837Z,56.5
2023-10-20T21:52:25.570Z,56.6
2023-10-20T21:57:26.504Z,56.3
2023-10-20T22:02:30.204Z,56.4
2023-10-20T22:07:30.625Z,56.1
2023-10-20T22:12:34.447Z,56.4
2023-10-20T22:17:35.104Z,56.2
2023-10-20T22:22:38.745Z,56.3
2023-10-20T22:27:42.064Z,56.3
2023-10-20T22:32:42.611Z,55.9
2023-10-20T22:37:43.563Z,56
2023-10-20T22:42:47.226Z,56
2023-10-20T22:47:47.745Z,55.5
2023-10-20T22:52:48.561Z,55.8
2023-10-20T22:57:49.472Z,55.9
2023-10-20T23:02:50.650Z,55.8
2023-10-20T23:07:51.432Z,55.7
2023-10-20T23:12:52.271Z,55.6
2023-10-20T23:17:53.730Z,55.5
2023-10-20T23:22:57.106Z,55.6
2023-10-20T23:28:00.316Z,55.6
2023-10-20T23:33:00.689Z,55.3
2023-10-20T23:38:04.280Z,55.4
2023-10-20T23:43:04.643Z,55.5
2023-10-20T23:48:07.409Z,55.5
2023-10-20T23:53:11.330Z,55.3
2023-10-20T23:58:11.864Z,55.4
